createdAt,value
2023-01-28T00:00:46.211Z,100385.00
2023-01-28T00:02:19.436Z,100391.00
2023-01-28T00:03:52.257Z,100386.00
2023-01-28T00:05:26.929Z,100383.00
2023-01-28T00:06:59.398Z,100383.00
2023-01-28T00:08:36.022Z,100383.00
2023-01-28T00:10:10.854Z,100397.00
2023-01-28T00:11:44.437Z,100396.00
2023-01-28T00:13:17.701Z,100390.00
2023-01-28T00:14:51.086Z,100393.00
2023-01-28T00:16:24.410Z,100391.00
2023-01-28T00:17:57.658Z,100393.00
2023-01-28T00:19:30.845Z,100394.00
2023-01-28T00:21:08.830Z,100387.00
2023-01-28T00:22:41.989Z,100392.00
2023-01-28T00:24:15.370Z,100392.00
2023-01-28T00:25:48.755Z,100381.00
2023-01-28T00:27:21.923Z,100388.00
2023-01-28T00:28:55.628Z,100387.00
2023-01-28T00:30:28.916Z,100390.00
2023-01-28T00:32:02.493Z,100392.00
2023-01-28T00:33:36.048Z,100387.00
2023-01-28T00:35:10.524Z,100391.00
2023-01-28T00:36:45.208Z,100383.00
2023-01-28T00:38:18.719Z,100388.00
2023-01-28T00:39:52.695Z,100392.00
2023-01-28T00:41:29.008Z,100400.00
2023-01-28T00:43:04.646Z,100387.00
2023-01-28T00:44:37.936Z,100388.00
2023-01-28T00:46:13.846Z,100396.00
2023-01-28T00:47:48.333Z,100397.00
2023-01-28T00:49:21.689Z,100391.00
2023-01-28T00:50:54.878Z,100403.00
2023-01-28T00:52:30.054Z,100391.00
2023-01-28T00:54:03.471Z,100390.00
2023-01-28T00:55:36.764Z,100388.00
2023-01-28T00:57:10.032Z,100391.00
2023-01-28T00:58:42.699Z,100394.00
2023-01-28T01:00:16.851Z,100382.00
2023-01-28T01:01:50.161Z,100384.00
2023-01-28T01:03:23.395Z,100388.00
2023-01-28T01:04:58.730Z,100391.00
2023-01-28T01:06:36.558Z,100390.00
2023-01-28T01:08:11.356Z,100391.00
2023-01-28T01:09:44.537Z,100397.00
2023-01-28T01:11:18.738Z,100385.00
2023-01-28T01:12:52.103Z,100392.00
2023-01-28T01:14:26.209Z,100387.00
2023-01-28T01:16:08.910Z,100401.00
2023-01-28T01:17:45.044Z,100398.00
2023-01-28T01:19:18.252Z,100398.00
2023-01-28T01:20:52.197Z,100396.00
2023-01-28T01:22:25.968Z,100392.00
2023-01-28T01:24:00.667Z,100403.00
2023-01-28T01:25:33.961Z,100400.00
2023-01-28T01:27:07.133Z,100389.00
2023-01-28T01:28:39.356Z,100392.00
2023-01-28T01:30:14.295Z,100391.00
2023-01-28T01:31:47.480Z,100395.00
2023-01-28T01:33:20.668Z,100388.00
2023-01-28T01:34:54.643Z,100385.00
2023-01-28T01:36:27.823Z,100388.00
2023-01-28T01:38:01.130Z,100390.00
2023-01-28T01:39:34.903Z,100395.00
2023-01-28T01:41:09.109Z,100391.00
2023-01-28T01:42:42.280Z,100397.00
2023-01-28T01:45:00.625Z,100402.00
2023-01-28T01:46:41.135Z,100399.00
2023-01-28T01:48:21.090Z,100397.00
2023-01-28T01:49:54.772Z,100393.00
2023-01-28T01:51:34.719Z,100390.00
2023-01-28T01:53:15.130Z,100393.00
2023-01-28T01:54:58.171Z,100397.00
2023-01-28T01:56:39.659Z,100403.00
2023-01-28T01:58:18.343Z,100407.00
2023-01-28T01:59:51.867Z,100394.00
2023-01-28T02:01:30.644Z,100396.00
2023-01-28T02:03:04.364Z,100400.00
2023-01-28T02:04:44.494Z,100403.00
2023-01-28T02:06:23.619Z,100405.00
2023-01-28T02:08:20.916Z,100409.00
2023-01-28T02:09:55.525Z,100410.00
2023-01-28T02:11:34.111Z,100406.00
2023-01-28T02:13:06.335Z,100408.00
2023-01-28T02:14:46.540Z,100408.00
2023-01-28T02:16:22.229Z,100414.00
2023-01-28T02:17:56.187Z,100400.00
2023-01-28T02:19:37.884Z,100406.00
2023-01-28T02:21:43.465Z,100413.00
2023-01-28T02:23:47.655Z,100421.00
2023-01-28T02:25:51.542Z,100419.00
2023-01-28T02:27:36.528Z,100421.00
2023-01-28T02:29:22.202Z,100415.00
2023-01-28T02:31:17.011Z,100415.00
2023-01-28T02:32:58.781Z,100417.00
2023-01-28T02:34:42.394Z,100417.00
2023-01-28T02:36:28.916Z,100416.00
2023-01-28T02:38:07.004Z,100417.00
2023-01-28T02:39:45.861Z,100418.00
2023-01-28T02:41:27.957Z,100407.00
2023-01-28T02:43:00.517Z,100415.00
2023-01-28T02:44:35.434Z,100419.00
2023-01-28T02:46:52.539Z,100422.00
2023-01-28T02:48:27.944Z,100414.00
2023-01-28T02:50:08.108Z,100425.00
2023-01-28T02:52:09.830Z,100435.00
2023-01-28T02:53:51.996Z,100425.00
2023-01-28T02:55:40.464Z,100416.00
2023-01-28T02:57:36.715Z,100433.00
2023-01-28T02:59:35.480Z,100440.00
2023-01-28T03:01:24.590Z,100435.00
2023-01-28T03:03:10.775Z,100439.00
2023-01-28T03:04:55.687Z,100448.00
2023-01-28T03:06:35.743Z,100439.00
2023-01-28T03:08:26.401Z,100441.00
2023-01-28T03:10:04.271Z,100437.00
2023-01-28T03:12:00.702Z,100434.00
2023-01-28T03:13:52.525Z,100428.00
2023-01-28T03:15:50.554Z,100435.00
2023-01-28T03:17:49.431Z,100430.00
2023-01-28T03:19:42.365Z,100435.00
2023-01-28T03:21:40.414Z,100424.00
2023-01-28T03:23:40.443Z,100427.00
2023-01-28T03:25:36.512Z,100439.00
2023-01-28T03:27:38.247Z,100432.00
2023-01-28T03:29:36.252Z,100437.00
2023-01-28T03:31:34.320Z,100426.00
2023-01-28T03:33:27.704Z,100426.00
2023-01-28T03:35:18.810Z,100434.00
2023-01-28T03:36:53.271Z,100435.00
2023-01-28T03:38:48.816Z,100423.00
2023-01-28T03:40:23.241Z,100426.00
2023-01-28T03:42:03.476Z,100419.00
2023-01-28T03:43:37.678Z,100417.00
2023-01-28T03:45:11.456Z,100415.00
2023-01-28T03:46:44.879Z,100410.00
2023-01-28T03:48:19.801Z,100421.00
2023-01-28T03:49:55.559Z,100419.00
2023-01-28T03:51:29.257Z,100417.00
2023-01-28T03:53:13.523Z,100424.00
2023-01-28T03:54:52.901Z,100428.00
2023-01-28T03:56:28.375Z,100427.00
2023-01-28T03:58:01.710Z,100432.00
2023-01-28T03:59:34.325Z,100431.00
2023-01-28T04:01:07.829Z,100435.00
2023-01-28T04:02:41.193Z,100440.00
2023-01-28T04:04:23.567Z,100443.00
2023-01-28T04:06:03.892Z,100448.00
2023-01-28T04:07:56.634Z,100440.00
2023-01-28T04:09:49.792Z,100438.00
2023-01-28T04:11:32.479Z,100434.00
2023-01-28T04:13:08.616Z,100441.00
2023-01-28T04:14:41.859Z,100438.00
2023-01-28T04:16:20.478Z,100439.00
2023-01-28T04:17:53.747Z,100445.00
2023-01-28T04:19:37.241Z,100444.00
2023-01-28T04:21:11.478Z,100438.00
2023-01-28T04:22:44.927Z,100440.00
2023-01-28T04:24:20.331Z,100442.00
2023-01-28T04:25:52.805Z,100441.00
2023-01-28T04:27:26.478Z,100449.00
2023-01-28T04:28:59.428Z,100437.00
2023-01-28T04:30:32.669Z,100448.00
2023-01-28T04:32:15.297Z,100456.00
2023-01-28T04:34:09.167Z,100445.00
2023-01-28T04:35:51.811Z,100460.00
2023-01-28T04:37:33.118Z,100464.00
2023-01-28T04:39:19.974Z,100464.00
2023-01-28T04:41:12.354Z,100465.00
2023-01-28T04:42:55.045Z,100460.00
2023-01-28T04:44:37.850Z,100471.00
2023-01-28T04:46:23.628Z,100462.00
2023-01-28T04:48:07.880Z,100461.00
2023-01-28T04:49:53.708Z,100466.00
2023-01-28T04:51:50.598Z,100470.00
2023-01-28T04:53:38.355Z,100475.00
2023-01-28T04:55:30.292Z,100465.00
2023-01-28T04:57:04.184Z,100472.00
2023-01-28T04:58:38.258Z,100478.00
2023-01-28T05:00:15.948Z,100474.00
2023-01-28T05:01:49.195Z,100476.00
2023-01-28T05:03:21.496Z,100478.00
2023-01-28T05:04:54.875Z,100473.00
2023-01-28T05:06:41.733Z,100476.00
2023-01-28T05:08:25.404Z,100476.00
2023-01-28T05:09:59.049Z,100475.00
2023-01-28T05:11:32.303Z,100478.00
2023-01-28T05:13:09.152Z,100461.00
2023-01-28T05:14:42.505Z,100472.00
2023-01-28T05:16:20.222Z,100463.00
2023-01-28T05:17:57.223Z,100466.00
2023-01-28T05:19:31.764Z,100471.00
2023-01-28T05:21:06.568Z,100470.00
2023-01-28T05:22:43.499Z,100464.00
2023-01-28T05:24:23.192Z,100466.00
2023-01-28T05:25:57.823Z,100472.00
2023-01-28T05:27:30.345Z,100477.00
2023-01-28T05:29:03.528Z,100459.00
2023-01-28T05:30:36.760Z,100456.00
2023-01-28T05:32:09.119Z,100467.00
2023-01-28T05:33:42.342Z,100458.00
2023-01-28T05:35:18.676Z,100463.00
2023-01-28T05:36:51.282Z,100463.00
2023-01-28T05:38:35.215Z,100472.00
2023-01-28T05:40:10.312Z,100468.00
2023-01-28T05:41:45.382Z,100471.00
2023-01-28T05:43:19.033Z,100461.00
2023-01-28T05:45:00.955Z,100471.00
2023-01-28T05:46:54.026Z,100477.00
2023-01-28T05:48:47.117Z,100465.00
2023-01-28T05:50:40.501Z,100469.00
2023-01-28T05:52:18.087Z,100473.00
2023-01-28T05:53:52.029Z,100468.00
2023-01-28T05:55:26.611Z,100482.00
2023-01-28T05:57:01.746Z,100476.00
2023-01-28T05:58:35.884Z,100484.00
2023-01-28T06:00:13.264Z,100485.00
2023-01-28T06:01:49.850Z,100486.00
2023-01-28T06:03:23.530Z,100486.00
2023-01-28T06:04:56.866Z,100485.00
2023-01-28T06:06:30.321Z,100488.00
2023-01-28T06:08:03.724Z,100478.00
2023-01-28T06:09:36.994Z,100486.00
2023-01-28T06:11:11.094Z,100482.00
2023-01-28T06:12:46.360Z,100487.00
2023-01-28T06:14:39.614Z,100489.00
2023-01-28T06:16:32.738Z,100493.00
2023-01-28T06:18:15.417Z,100493.00
2023-01-28T06:19:48.676Z,100491.00
2023-01-28T06:21:22.299Z,100494.00
2023-01-28T06:22:56.653Z,100494.00
2023-01-28T06:24:30.259Z,100490.00
2023-01-28T06:26:03.590Z,100489.00
2023-01-28T06:27:36.959Z,100493.00
2023-01-28T06:29:11.616Z,100505.00
2023-01-28T06:30:44.804Z,100500.00
2023-01-28T06:32:18.014Z,100500.00
2023-01-28T06:33:51.340Z,100496.00
2023-01-28T06:35:25.535Z,100491.00
2023-01-28T06:36:58.743Z,100492.00
2023-01-28T06:38:32.085Z,100493.00
2023-01-28T06:40:06.797Z,100498.00
2023-01-28T06:41:40.184Z,100492.00
2023-01-28T06:43:13.527Z,100496.00
2023-01-28T06:44:47.999Z,100487.00
2023-01-28T06:46:21.262Z,100493.00
2023-01-28T06:47:54.502Z,100493.00
2023-01-28T06:49:27.669Z,100495.00
2023-01-28T06:51:00.950Z,100496.00
2023-01-28T06:52:34.169Z,100489.00
2023-01-28T06:54:07.826Z,100503.00
2023-01-28T06:55:41.147Z,100493.00
2023-01-28T06:57:14.325Z,100497.00
2023-01-28T06:58:47.653Z,100506.00
2023-01-28T07:00:23.037Z,100501.00
2023-01-28T07:01:56.406Z,100503.00
2023-01-28T07:03:30.113Z,100508.00
2023-01-28T07:05:03.643Z,100506.00
2023-01-28T07:06:36.773Z,100508.00
2023-01-28T07:08:10.092Z,100506.00
2023-01-28T07:09:43.229Z,100506.00
2023-01-28T07:11:16.651Z,100501.00
2023-01-28T07:12:49.945Z,100501.00
2023-01-28T07:14:23.094Z,100503.00
2023-01-28T07:15:58.143Z,100501.00
2023-01-28T07:17:31.342Z,100491.00
2023-01-28T07:19:04.917Z,100491.00
2023-01-28T07:20:38.145Z,100493.00
2023-01-28T07:22:11.292Z,100504.00
2023-01-28T07:23:44.434Z,100498.00
2023-01-28T07:25:17.077Z,100498.00
2023-01-28T07:26:50.393Z,100490.00
2023-01-28T07:28:23.856Z,100488.00
2023-01-28T07:29:56.987Z,100481.00
2023-01-28T07:31:31.615Z,100484.00
2023-01-28T07:33:05.127Z,100487.00
2023-01-28T07:34:40.064Z,100497.00
2023-01-28T07:36:13.282Z,100489.00
2023-01-28T07:37:53.372Z,100480.00
2023-01-28T07:39:26.916Z,100489.00
2023-01-28T07:41:00.297Z,100484.00
2023-01-28T07:42:33.256Z,100486.00
2023-01-28T07:44:11.855Z,100490.00
2023-01-28T07:45:47.602Z,100488.00
2023-01-28T07:47:23.454Z,100488.00
2023-01-28T07:48:56.776Z,100504.00
2023-01-28T07:50:34.018Z,100503.00
2023-01-28T07:52:06.280Z,100503.00
2023-01-28T07:53:40.081Z,100500.00
2023-01-28T07:55:15.643Z,100503.00
2023-01-28T07:56:49.026Z,100500.00
2023-01-28T07:58:22.230Z,100508.00
2023-01-28T07:59:55.529Z,100501.00
2023-01-28T08:01:28.860Z,100507.00
2023-01-28T08:03:05.972Z,100499.00
2023-01-28T08:04:40.451Z,100503.00
2023-01-28T08:06:13.815Z,100503.00
2023-01-28T08:07:48.515Z,100521.00
2023-01-28T08:09:21.638Z,100519.00
2023-01-28T08:10:55.153Z,100516.00
2023-01-28T08:12:28.280Z,100515.00
2023-01-28T08:14:01.556Z,100531.00
2023-01-28T08:15:37.174Z,100529.00
2023-01-28T08:17:10.427Z,100530.00
2023-01-28T08:18:48.599Z,100527.00
2023-01-28T08:20:22.567Z,100527.00
2023-01-28T08:21:55.857Z,100534.00
2023-01-28T08:23:30.316Z,100519.00
2023-01-28T08:25:03.436Z,100524.00
2023-01-28T08:26:37.340Z,100525.00
2023-01-28T08:28:11.453Z,100537.00
2023-01-28T08:29:44.566Z,100537.00
2023-01-28T08:31:17.737Z,100537.00
2023-01-28T08:32:50.947Z,100537.00
2023-01-28T08:34:25.580Z,100534.00
2023-01-28T08:35:58.805Z,100548.00
2023-01-28T08:37:31.977Z,100551.00
2023-01-28T08:39:06.094Z,100546.00
2023-01-28T08:40:39.497Z,100561.00
2023-01-28T08:42:13.366Z,100559.00
2023-01-28T08:43:46.602Z,100571.00
2023-01-28T08:45:22.414Z,100564.00
2023-01-28T08:46:55.605Z,100566.00
2023-01-28T08:48:28.862Z,100570.00
2023-01-28T08:50:03.539Z,100569.00
2023-01-28T08:51:36.694Z,100564.00
2023-01-28T08:53:13.769Z,100565.00
2023-01-28T08:54:48.691Z,100556.00
2023-01-28T08:56:22.082Z,100569.00
2023-01-28T08:57:58.205Z,100562.00
2023-01-28T08:59:31.858Z,100572.00
2023-01-28T09:01:07.513Z,100569.00
2023-01-28T09:02:40.859Z,100575.00
2023-01-28T09:04:14.324Z,100565.00
2023-01-28T09:05:49.542Z,100580.00
2023-01-28T09:07:22.888Z,100582.00
2023-01-28T09:08:58.389Z,100582.00
2023-01-28T09:10:31.870Z,100588.00
2023-01-28T09:12:05.924Z,100591.00
2023-01-28T09:13:39.089Z,100597.00
2023-01-28T09:15:13.581Z,100594.00
2023-01-28T09:16:46.788Z,100608.00
2023-01-28T09:18:20.787Z,100612.00
2023-01-28T09:19:54.028Z,100608.00
2023-01-28T09:21:28.728Z,100616.00
2023-01-28T09:23:03.086Z,100611.00
2023-01-28T09:24:38.645Z,100602.00
2023-01-28T09:26:12.276Z,100626.00
2023-01-28T09:27:46.659Z,100626.00
2023-01-28T09:29:19.805Z,100620.00
2023-01-28T09:30:53.121Z,100626.00
2023-01-28T09:32:26.368Z,100634.00
2023-01-28T09:33:59.523Z,100629.00
2023-01-28T09:35:33.899Z,100627.00
2023-01-28T09:37:08.547Z,100629.00
2023-01-28T09:38:41.920Z,100632.00
2023-01-28T09:40:20.372Z,100629.00
2023-01-28T09:42:17.261Z,100633.00
2023-01-28T09:44:11.827Z,100627.00
2023-01-28T09:45:49.915Z,100630.00
2023-01-28T09:47:29.919Z,100628.00
2023-01-28T09:49:18.537Z,100628.00
2023-01-28T09:50:55.852Z,100636.00
2023-01-28T09:52:37.541Z,100628.00
2023-01-28T09:54:25.076Z,100627.00
2023-01-28T09:56:03.386Z,100639.00
2023-01-28T09:57:46.585Z,100640.00
2023-01-28T09:59:23.497Z,100631.00
2023-01-28T10:01:05.900Z,100631.00
2023-01-28T10:03:00.217Z,100647.00
2023-01-28T10:04:55.541Z,100648.00
2023-01-28T10:06:45.943Z,100644.00
2023-01-28T10:08:44.585Z,100645.00
2023-01-28T10:10:27.031Z,100639.00
2023-01-28T10:12:17.400Z,100634.00
2023-01-28T10:14:00.187Z,100633.00
2023-01-28T10:15:56.773Z,100642.00
2023-01-28T10:17:37.298Z,100632.00
2023-01-28T10:19:21.058Z,100640.00
2023-01-28T10:21:01.316Z,100634.00
2023-01-28T10:22:42.667Z,100633.00
2023-01-28T10:24:26.282Z,100633.00
2023-01-28T10:26:06.297Z,100634.00
2023-01-28T10:27:39.860Z,100631.00
2023-01-28T10:29:19.123Z,100629.00
2023-01-28T10:30:53.254Z,100637.00
2023-01-28T10:32:31.879Z,100642.00
2023-01-28T10:34:05.291Z,100635.00
2023-01-28T10:35:43.490Z,100633.00
2023-01-28T10:37:17.964Z,100630.00
2023-01-28T10:38:52.215Z,100631.00
2023-01-28T10:40:26.768Z,100641.00
2023-01-28T10:42:00.071Z,100630.00
2023-01-28T10:43:40.048Z,100637.00
2023-01-28T10:45:21.871Z,100625.00
2023-01-28T10:47:00.597Z,100625.00
2023-01-28T10:48:37.707Z,100617.00
2023-01-28T10:50:19.584Z,100616.00
2023-01-28T10:51:52.770Z,100606.00
2023-01-28T10:53:37.389Z,100612.00
2023-01-28T10:55:15.892Z,100612.00
2023-01-28T10:56:56.047Z,100616.00
2023-01-28T10:58:34.551Z,100609.00
2023-01-28T11:00:25.637Z,100620.00
2023-01-28T11:02:03.621Z,100623.00
2023-01-28T11:03:37.043Z,100614.00
2023-01-28T11:05:20.821Z,100620.00
2023-01-28T11:07:01.094Z,100620.00
2023-01-28T11:08:46.127Z,100632.00
2023-01-28T11:10:33.933Z,100632.00
2023-01-28T11:12:20.625Z,100629.00
2023-01-28T11:13:55.623Z,100634.00
2023-01-28T11:15:29.867Z,100626.00
2023-01-28T11:17:03.271Z,100634.00
2023-01-28T11:18:41.780Z,100634.00
2023-01-28T11:20:23.660Z,100635.00
2023-01-28T11:21:59.481Z,100630.00
2023-01-28T11:23:36.828Z,100636.00
2023-01-28T11:25:20.620Z,100634.00
2023-01-28T11:26:57.842Z,100649.00
2023-01-28T11:28:33.690Z,100645.00
2023-01-28T11:30:23.000Z,100639.00
2023-01-28T11:31:56.873Z,100637.00
2023-01-28T11:33:37.307Z,100636.00
2023-01-28T11:35:28.715Z,100645.00
2023-01-28T11:37:14.016Z,100647.00
2023-01-28T11:38:53.820Z,100636.00
2023-01-28T11:40:27.932Z,100646.00
2023-01-28T11:42:19.511Z,100654.00
2023-01-28T11:43:55.527Z,100649.00
2023-01-28T11:45:44.937Z,100642.00
2023-01-28T11:47:40.231Z,100638.00
2023-01-28T11:49:28.394Z,100636.00
2023-01-28T11:51:08.400Z,100633.00
2023-01-28T11:53:18.499Z,100644.00
2023-01-28T11:55:12.096Z,100646.00
2023-01-28T11:57:06.579Z,100647.00
2023-01-28T11:58:58.436Z,100636.00
2023-01-28T12:00:45.105Z,100634.00
2023-01-28T12:02:45.476Z,100632.00
2023-01-28T12:04:49.644Z,100626.00
2023-01-28T12:06:44.126Z,100629.00
2023-01-28T12:08:24.860Z,100626.00
2023-01-28T12:10:04.904Z,100623.00
2023-01-28T12:12:10.260Z,100625.00
2023-01-28T12:14:00.251Z,100623.00
2023-01-28T12:16:00.047Z,100603.00
2023-01-28T12:17:55.903Z,100603.00
2023-01-28T12:20:01.233Z,100599.00
2023-01-28T12:22:05.425Z,100608.00
2023-01-28T12:23:59.799Z,100611.00
2023-01-28T12:25:49.379Z,100614.00
2023-01-28T12:27:40.687Z,100604.00
2023-01-28T12:29:31.272Z,100616.00
2023-01-28T12:31:37.424Z,100618.00
2023-01-28T12:33:48.258Z,100616.00
2023-01-28T12:35:43.489Z,100611.00
2023-01-28T12:37:29.205Z,100615.00
2023-01-28T12:39:24.965Z,100611.00
2023-01-28T12:41:11.365Z,100606.00
2023-01-28T12:42:53.620Z,100599.00
2023-01-28T12:44:37.164Z,100587.00
2023-01-28T12:46:21.700Z,100572.00
2023-01-28T12:48:02.396Z,100589.00
2023-01-28T12:49:41.395Z,100587.00
2023-01-28T12:51:19.297Z,100576.00
2023-01-28T12:53:00.697Z,100572.00
2023-01-28T12:54:43.838Z,100565.00
2023-01-28T12:56:20.780Z,100550.00
2023-01-28T12:57:57.882Z,100545.00
2023-01-28T12:59:41.200Z,100537.00
2023-01-28T13:01:22.467Z,100546.00
2023-01-28T13:03:11.396Z,100556.00
2023-01-28T13:04:55.404Z,100552.00
2023-01-28T13:06:36.255Z,100558.00
2023-01-28T13:08:16.307Z,100546.00
2023-01-28T13:09:55.743Z,100533.00
2023-01-28T13:11:36.883Z,100527.00
2023-01-28T13:13:19.678Z,100511.00
2023-01-28T13:14:54.521Z,100498.00
2023-01-28T13:16:37.453Z,100499.00
2023-01-28T13:18:34.400Z,100506.00
2023-01-28T13:20:16.507Z,100487.00
2023-01-28T13:21:50.678Z,100486.00
2023-01-28T13:23:37.209Z,100478.00
2023-01-28T13:25:27.814Z,100472.00
2023-01-28T13:27:16.361Z,100469.00
2023-01-28T13:28:51.611Z,100471.00
2023-01-28T13:30:30.758Z,100475.00
2023-01-28T13:32:30.310Z,100470.00
2023-01-28T13:34:06.321Z,100472.00
2023-01-28T13:35:41.902Z,100477.00
2023-01-28T13:37:26.525Z,100500.00
2023-01-28T13:39:06.148Z,100501.00
2023-01-28T13:40:42.673Z,100514.00
2023-01-28T13:42:26.761Z,100506.00
2023-01-28T13:44:01.151Z,100504.00
2023-01-28T13:45:36.001Z,100513.00
2023-01-28T13:47:26.555Z,100522.00
2023-01-28T13:49:03.476Z,100522.00
2023-01-28T13:50:43.205Z,100528.00
2023-01-28T13:52:23.521Z,100524.00
2023-01-28T13:54:03.412Z,100526.00
2023-01-28T13:55:45.036Z,100536.00
2023-01-28T13:58:13.153Z,100532.00
2023-01-28T14:00:12.926Z,100530.00
2023-01-28T14:02:23.335Z,100537.00
2023-01-28T14:04:38.412Z,100549.00
2023-01-28T14:06:49.272Z,100546.00
2023-01-28T14:09:05.884Z,100557.00
2023-01-28T14:11:02.824Z,100574.00
2023-01-28T14:13:23.310Z,100576.00
2023-01-28T14:15:41.749Z,100561.00
2023-01-28T14:17:30.728Z,100557.00
2023-01-28T14:19:06.038Z,100558.00
2023-01-28T14:20:46.555Z,100560.00
2023-01-28T14:22:22.246Z,100575.00
2023-01-28T14:23:58.871Z,100588.00
2023-01-28T14:25:59.530Z,100573.00
2023-01-28T14:27:40.505Z,100572.00
2023-01-28T14:29:48.034Z,100565.00
2023-01-28T14:31:29.807Z,100572.00
2023-01-28T14:33:04.646Z,100581.00
2023-01-28T14:34:38.478Z,100567.00
2023-01-28T14:36:13.199Z,100562.00
2023-01-28T14:37:46.912Z,100571.00
2023-01-28T14:39:27.264Z,100556.00
2023-01-28T14:41:03.177Z,100571.00
2023-01-28T14:42:40.053Z,100565.00
2023-01-28T14:44:26.727Z,100566.00
2023-01-28T14:46:20.197Z,100572.00
2023-01-28T14:48:22.829Z,100541.00
2023-01-28T14:50:23.691Z,100537.00
2023-01-28T14:52:25.102Z,100549.00
2023-01-28T14:54:18.699Z,100537.00
2023-01-28T14:56:00.103Z,100524.00
2023-01-28T14:57:49.733Z,100525.00
2023-01-28T14:59:27.536Z,100515.00
2023-01-28T15:01:02.350Z,100505.00
2023-01-28T15:02:35.641Z,100503.00
2023-01-28T15:04:25.404Z,100502.00
2023-01-28T15:06:07.930Z,100494.00
2023-01-28T15:07:46.447Z,100487.00
2023-01-28T15:09:20.422Z,100484.00
2023-01-28T15:11:00.551Z,100486.00
2023-01-28T15:12:36.870Z,100483.00
2023-01-28T15:14:26.766Z,100504.00
2023-01-28T15:16:00.757Z,100511.00
2023-01-28T15:17:34.111Z,100525.00
2023-01-28T15:19:10.498Z,100524.00
2023-01-28T15:20:49.270Z,100529.00
2023-01-28T15:22:28.795Z,100534.00
2023-01-28T15:24:04.336Z,100548.00
2023-01-28T15:25:38.034Z,100532.00
2023-01-28T15:27:19.927Z,100537.00
2023-01-28T15:28:55.327Z,100528.00
2023-01-28T15:30:31.136Z,100534.00
2023-01-28T15:32:05.993Z,100534.00
2023-01-28T15:33:39.280Z,100532.00
2023-01-28T15:35:15.162Z,100536.00
2023-01-28T15:36:50.625Z,100538.00
2023-01-28T15:38:30.217Z,100539.00
2023-01-28T15:40:06.971Z,100549.00
2023-01-28T15:41:46.512Z,100544.00
2023-01-28T15:43:25.331Z,100547.00
2023-01-28T15:44:59.629Z,100547.00
2023-01-28T15:46:33.785Z,100550.00
2023-01-28T15:48:09.089Z,100551.00
2023-01-28T15:49:47.143Z,100542.00
2023-01-28T15:51:26.411Z,100537.00
2023-01-28T15:53:01.869Z,100542.00
2023-01-28T15:54:39.882Z,100543.00
2023-01-28T15:56:16.113Z,100548.00
2023-01-28T15:57:49.627Z,100554.00
2023-01-28T15:59:31.703Z,100565.00
2023-01-28T16:01:17.546Z,100557.00
2023-01-28T16:02:53.390Z,100566.00
2023-01-28T16:04:29.671Z,100564.00
2023-01-28T16:06:09.477Z,100566.00
2023-01-28T16:07:47.644Z,100577.00
2023-01-28T16:09:26.404Z,100587.00
2023-01-28T16:10:59.907Z,100580.00
2023-01-28T16:12:34.662Z,100579.00
2023-01-28T16:14:08.420Z,100571.00
2023-01-28T16:15:48.066Z,100592.00
2023-01-28T16:17:25.887Z,100598.00
2023-01-28T16:18:59.501Z,100602.00
2023-01-28T16:20:33.896Z,100600.00
2023-01-28T16:22:09.752Z,100597.00
2023-01-28T16:23:53.448Z,100602.00
2023-01-28T16:25:32.055Z,100606.00
2023-01-28T16:27:08.123Z,100610.00
2023-01-28T16:28:42.425Z,100603.00
2023-01-28T16:30:16.962Z,100615.00
2023-01-28T16:31:50.318Z,100626.00
2023-01-28T16:33:23.941Z,100626.00
2023-01-28T16:34:57.812Z,100621.00
2023-01-28T16:36:30.963Z,100641.00
2023-01-28T16:38:05.248Z,100644.00
2023-01-28T16:39:38.613Z,100647.00
2023-01-28T16:41:25.981Z,100645.00
2023-01-28T16:42:59.599Z,100639.00
2023-01-28T16:44:33.508Z,100647.00
2023-01-28T16:46:13.348Z,100635.00
2023-01-28T16:47:47.609Z,100648.00
2023-01-28T16:49:21.001Z,100656.00
2023-01-28T16:50:54.496Z,100660.00
2023-01-28T16:52:28.462Z,100658.00
2023-01-28T16:54:02.027Z,100650.00
2023-01-28T16:55:35.185Z,100646.00
2023-01-28T16:57:11.996Z,100649.00
2023-01-28T16:58:46.969Z,100651.00
2023-01-28T17:00:23.251Z,100649.00
2023-01-28T17:01:57.434Z,100659.00
2023-01-28T17:03:30.707Z,100660.00
2023-01-28T17:05:04.314Z,100653.00
2023-01-28T17:06:38.774Z,100645.00
2023-01-28T17:08:12.236Z,100645.00
2023-01-28T17:09:46.450Z,100644.00
2023-01-28T17:11:19.603Z,100632.00
2023-01-28T17:12:54.542Z,100626.00
2023-01-28T17:14:36.051Z,100627.00
2023-01-28T17:16:09.772Z,100624.00
2023-01-28T17:17:42.930Z,100615.00
2023-01-28T17:19:18.729Z,100620.00
2023-01-28T17:20:51.863Z,100612.00
2023-01-28T17:22:25.200Z,100607.00
2023-01-28T17:23:59.457Z,100612.00
2023-01-28T17:25:32.835Z,100596.00
2023-01-28T17:27:06.712Z,100602.00
2023-01-28T17:28:40.566Z,100602.00
2023-01-28T17:30:15.152Z,100599.00
2023-01-28T17:31:48.392Z,100605.00
2023-01-28T17:33:21.701Z,100604.00
2023-01-28T17:34:54.819Z,100616.00
2023-01-28T17:36:29.420Z,100624.00
2023-01-28T17:38:03.079Z,100609.00
2023-01-28T17:39:36.283Z,100608.00
2023-01-28T17:41:13.792Z,100614.00
2023-01-28T17:42:46.998Z,100617.00
2023-01-28T17:44:21.924Z,100612.00
2023-01-28T17:45:55.347Z,100617.00
2023-01-28T17:47:28.435Z,100613.00
2023-01-28T17:49:03.350Z,100619.00
2023-01-28T17:50:39.501Z,100629.00
2023-01-28T17:52:13.012Z,100631.00
2023-01-28T17:53:48.307Z,100638.00
2023-01-28T17:55:21.557Z,100640.00
2023-01-28T17:56:55.060Z,100643.00
2023-01-28T17:58:28.212Z,100651.00
2023-01-28T18:00:02.834Z,100660.00
2023-01-28T18:01:57.707Z,100662.00
2023-01-28T18:03:30.942Z,100661.00
2023-01-28T18:05:04.610Z,100667.00
2023-01-28T18:06:38.673Z,100671.00
2023-01-28T18:08:12.077Z,100669.00
2023-01-28T18:09:46.795Z,100669.00
2023-01-28T18:11:21.290Z,100672.00
2023-01-28T18:12:54.733Z,100672.00
2023-01-28T18:14:27.904Z,100664.00
2023-01-28T18:16:01.283Z,100661.00
2023-01-28T18:17:35.959Z,100657.00
2023-01-28T18:19:10.272Z,100665.00
2023-01-28T18:20:43.765Z,100662.00
2023-01-28T18:22:17.147Z,100668.00
2023-01-28T18:23:53.837Z,100674.00
2023-01-28T18:25:27.258Z,100680.00
2023-01-28T18:27:03.348Z,100679.00
2023-01-28T18:28:36.801Z,100671.00
2023-01-28T18:30:13.932Z,100660.00
2023-01-28T18:31:48.711Z,100664.00
2023-01-28T18:33:24.663Z,100660.00
2023-01-28T18:34:58.107Z,100671.00
2023-01-28T18:36:31.443Z,100670.00
2023-01-28T18:38:04.681Z,100678.00
2023-01-28T18:39:39.727Z,100683.00
2023-01-28T18:41:13.091Z,100673.00
2023-01-28T18:42:46.320Z,100698.00
2023-01-28T18:44:19.786Z,100696.00
2023-01-28T18:45:53.390Z,100688.00
2023-01-28T18:47:27.075Z,100694.00
2023-01-28T18:49:02.143Z,100698.00
2023-01-28T18:50:35.924Z,100694.00
2023-01-28T18:52:09.352Z,100703.00
2023-01-28T18:53:42.972Z,100695.00